sensor_id;sensor_type;location;lat;lon;timestamp;P1;durP1;ratioP1;P2;durP2;ratioP2
52564;SDS011;38460;53.106;7.004;2023-07-28T00:02:09;7.68;;;5.55;;
52564;SDS011;38460;53.106;7.004;2023-07-28T00:04:35;8.95;;;5.63;;
52564;SDS011;38460;53.106;7.004;2023-07-28T00:07:01;10.75;;;6.22;;
52564;SDS011;38460;53.106;7.004;2023-07-28T00:09:30;10.05;;;5.88;;
52564;SDS011;38460;53.106;7.004;2023-07-28T00:12:00;9.90;;;6.60;;
52564;SDS011;38460;53.106;7.004;2023-07-28T00:14:26;12.88;;;6.43;;
52564;SDS011;38460;53.106;7.004;2023-07-28T00:16:52;13.02;;;7.47;;
52564;SDS011;38460;53.106;7.004;2023-07-28T00:19:19;13.13;;;6.75;;
52564;SDS011;38460;53.106;7.004;2023-07-28T00:21:47;12.38;;;7.55;;
52564;SDS011;38460;53.106;7.004;2023-07-28T00:24:13;14.77;;;7.95;;
52564;SDS011;38460;53.106;7.004;2023-07-28T00:26:39;15.07;;;8.40;;
52564;SDS011;38460;53.106;7.004;2023-07-28T00:29:05;15.70;;;8.48;;
52564;SDS011;38460;53.106;7.004;2023-07-28T00:31:32;17.58;;;9.55;;
52564;SDS011;38460;53.106;7.004;2023-07-28T00:33:58;16.50;;;10.27;;
52564;SDS011;38460;53.106;7.004;2023-07-28T00:36:24;20.77;;;11.13;;
52564;SDS011;38460;53.106;7.004;2023-07-28T00:38:50;15.27;;;8.80;;
52564;SDS011;38460;53.106;7.004;2023-07-28T00:41:16;19.20;;;9.63;;
52564;SDS011;38460;53.106;7.004;2023-07-28T00:43:42;17.40;;;10.27;;
52564;SDS011;38460;53.106;7.004;2023-07-28T00:46:08;15.02;;;8.95;;
52564;SDS011;38460;53.106;7.004;2023-07-28T00:48:35;15.75;;;9.88;;
52564;SDS011;38460;53.106;7.004;2023-07-28T00:51:01;17.35;;;9.32;;
52564;SDS011;38460;53.106;7.004;2023-07-28T00:53:27;17.88;;;10.25;;
52564;SDS011;38460;53.106;7.004;2023-07-28T00:55:54;18.10;;;9.90;;
52564;SDS011;38460;53.106;7.004;2023-07-28T00:58:20;15.95;;;9.20;;
52564;SDS011;38460;53.106;7.004;2023-07-28T01:00:46;17.17;;;9.13;;
52564;SDS011;38460;53.106;7.004;2023-07-28T01:03:13;15.57;;;8.80;;
52564;SDS011;38460;53.106;7.004;2023-07-28T01:05:44;17.10;;;9.15;;
52564;SDS011;38460;53.106;7.004;2023-07-28T01:08:39;14.85;;;8.45;;
52564;SDS011;38460;53.106;7.004;2023-07-28T01:11:12;12.50;;;8.02;;
52564;SDS011;38460;53.106;7.004;2023-07-28T01:13:39;15.40;;;8.23;;
52564;SDS011;38460;53.106;7.004;2023-07-28T01:16:05;16.83;;;9.35;;
52564;SDS011;38460;53.106;7.004;2023-07-28T01:18:31;16.10;;;9.38;;
52564;SDS011;38460;53.106;7.004;2023-07-28T01:20:57;15.88;;;9.23;;
52564;SDS011;38460;53.106;7.004;2023-07-28T01:26:10;19.25;;;10.65;;
52564;SDS011;38460;53.106;7.004;2023-07-28T01:28:38;14.77;;;8.57;;
52564;SDS011;38460;53.106;7.004;2023-07-28T01:31:06;15.77;;;8.98;;
52564;SDS011;38460;53.106;7.004;2023-07-28T01:33:33;17.48;;;10.00;;
52564;SDS011;38460;53.106;7.004;2023-07-28T01:35:59;15.38;;;10.50;;
52564;SDS011;38460;53.106;7.004;2023-07-28T01:38:26;20.48;;;11.00;;
52564;SDS011;38460;53.106;7.004;2023-07-28T01:40:52;19.83;;;10.65;;
52564;SDS011;38460;53.106;7.004;2023-07-28T01:43:18;17.35;;;10.57;;
52564;SDS011;38460;53.106;7.004;2023-07-28T01:45:44;20.80;;;12.63;;
52564;SDS011;38460;53.106;7.004;2023-07-28T01:48:10;23.75;;;11.20;;
52564;SDS011;38460;53.106;7.004;2023-07-28T01:50:36;18.73;;;11.75;;
52564;SDS011;38460;53.106;7.004;2023-07-28T01:53:02;20.20;;;11.85;;
52564;SDS011;38460;53.106;7.004;2023-07-28T01:55:29;19.80;;;12.68;;
52564;SDS011;38460;53.106;7.004;2023-07-28T01:57:58;21.35;;;11.93;;
52564;SDS011;38460;53.106;7.004;2023-07-28T02:00:25;21.48;;;12.15;;
52564;SDS011;38460;53.106;7.004;2023-07-28T02:02:51;24.83;;;11.10;;
52564;SDS011;38460;53.106;7.004;2023-07-28T02:05:17;21.85;;;13.38;;
52564;SDS011;38460;53.106;7.004;2023-07-28T02:07:44;16.15;;;10.57;;
52564;SDS011;38460;53.106;7.004;2023-07-28T02:10:09;20.17;;;12.50;;
52564;SDS011;38460;53.106;7.004;2023-07-28T02:12:36;20.58;;;12.52;;
52564;SDS011;38460;53.106;7.004;2023-07-28T02:15:05;20.88;;;12.25;;
52564;SDS011;38460;53.106;7.004;2023-07-28T02:17:31;28.63;;;14.32;;
52564;SDS011;38460;53.106;7.004;2023-07-28T02:19:57;20.40;;;12.68;;
52564;SDS011;38460;53.106;7.004;2023-07-28T02:22:22;24.90;;;13.70;;
52564;SDS011;38460;53.106;7.004;2023-07-28T02:24:48;22.38;;;13.27;;
52564;SDS011;38460;53.106;7.004;2023-07-28T02:27:14;24.02;;;14.02;;
52564;SDS011;38460;53.106;7.004;2023-07-28T02:29:40;30.08;;;15.75;;
52564;SDS011;38460;53.106;7.004;2023-07-28T02:32:07;23.52;;;14.13;;
52564;SDS011;38460;53.106;7.004;2023-07-28T02:34:33;25.42;;;15.18;;
52564;SDS011;38460;53.106;7.004;2023-07-28T02:36:59;27.95;;;15.68;;
52564;SDS011;38460;53.106;7.004;2023-07-28T02:39:25;25.90;;;14.65;;
52564;SDS011;38460;53.106;7.004;2023-07-28T02:41:51;24.42;;;16.08;;
52564;SDS011;38460;53.106;7.004;2023-07-28T02:44:16;25.58;;;14.90;;
52564;SDS011;38460;53.106;7.004;2023-07-28T02:46:42;21.02;;;12.55;;
52564;SDS011;38460;53.106;7.004;2023-07-28T02:49:08;24.77;;;14.23;;
52564;SDS011;38460;53.106;7.004;2023-07-28T02:51:33;21.63;;;13.32;;
52564;SDS011;38460;53.106;7.004;2023-07-28T02:53:59;21.15;;;13.30;;
52564;SDS011;38460;53.106;7.004;2023-07-28T02:56:25;20.73;;;12.63;;
52564;SDS011;38460;53.106;7.004;2023-07-28T02:58:51;19.85;;;12.57;;
52564;SDS011;38460;53.106;7.004;2023-07-28T03:01:17;24.23;;;13.50;;
52564;SDS011;38460;53.106;7.004;2023-07-28T03:03:43;22.42;;;12.43;;
52564;SDS011;38460;53.106;7.004;2023-07-28T03:06:08;24.50;;;12.85;;
52564;SDS011;38460;53.106;7.004;2023-07-28T03:08:34;17.00;;;11.48;;
52564;SDS011;38460;53.106;7.004;2023-07-28T03:11:00;18.38;;;11.00;;
52564;SDS011;38460;53.106;7.004;2023-07-28T03:13:28;21.55;;;11.40;;
52564;SDS011;38460;53.106;7.004;2023-07-28T03:15:54;22.55;;;12.20;;
52564;SDS011;38460;53.106;7.004;2023-07-28T03:18:20;19.33;;;12.60;;
52564;SDS011;38460;53.106;7.004;2023-07-28T03:20:46;20.15;;;12.27;;
52564;SDS011;38460;53.106;7.004;2023-07-28T03:23:12;22.45;;;11.95;;
52564;SDS011;38460;53.106;7.004;2023-07-28T03:25:38;18.13;;;11.73;;
52564;SDS011;38460;53.106;7.004;2023-07-28T03:28:04;19.33;;;11.40;;
52564;SDS011;38460;53.106;7.004;2023-07-28T03:30:29;22.75;;;12.05;;
52564;SDS011;38460;53.106;7.004;2023-07-28T03:32:55;19.15;;;12.60;;
52564;SDS011;38460;53.106;7.004;2023-07-28T03:35:21;17.13;;;11.48;;
52564;SDS011;38460;53.106;7.004;2023-07-28T03:37:47;20.60;;;11.35;;
52564;SDS011;38460;53.106;7.004;2023-07-28T03:40:12;22.42;;;11.57;;
52564;SDS011;38460;53.106;7.004;2023-07-28T03:42:38;29.02;;;13.07;;
52564;SDS011;38460;53.106;7.004;2023-07-28T03:45:04;20.33;;;10.60;;
52564;SDS011;38460;53.106;7.004;2023-07-28T03:47:30;24.92;;;12.70;;
52564;SDS011;38460;53.106;7.004;2023-07-28T03:49:56;25.40;;;13.35;;
52564;SDS011;38460;53.106;7.004;2023-07-28T03:52:22;25.20;;;13.07;;
52564;SDS011;38460;53.106;7.004;2023-07-28T03:54:47;22.10;;;12.60;;
52564;SDS011;38460;53.106;7.004;2023-07-28T03:57:13;22.67;;;11.82;;
52564;SDS011;38460;53.106;7.004;2023-07-28T03:59:39;22.33;;;10.90;;
52564;SDS011;38460;53.106;7.004;2023-07-28T04:02:04;16.55;;;9.73;;
52564;SDS011;38460;53.106;7.004;2023-07-28T04:04:31;18.75;;;10.98;;
52564;SDS011;38460;53.106;7.004;2023-07-28T04:06:56;20.00;;;11.35;;
52564;SDS011;38460;53.106;7.004;2023-07-28T04:09:22;23.20;;;11.73;;
52564;SDS011;38460;53.106;7.004;2023-07-28T04:11:48;16.55;;;9.80;;
52564;SDS011;38460;53.106;7.004;2023-07-28T04:14:14;18.33;;;10.02;;
52564;SDS011;38460;53.106;7.004;2023-07-28T04:16:40;22.58;;;12.25;;
52564;SDS011;38460;53.106;7.004;2023-07-28T04:19:05;15.68;;;10.35;;
52564;SDS011;38460;53.106;7.004;2023-07-28T04:21:31;21.02;;;9.43;;
52564;SDS011;38460;53.106;7.004;2023-07-28T04:23:57;21.08;;;11.23;;
52564;SDS011;38460;53.106;7.004;2023-07-28T04:26:23;19.45;;;9.18;;
52564;SDS011;38460;53.106;7.004;2023-07-28T04:28:52;16.67;;;9.25;;
52564;SDS011;38460;53.106;7.004;2023-07-28T04:31:18;25.65;;;10.63;;
52564;SDS011;38460;53.106;7.004;2023-07-28T04:33:43;22.23;;;10.85;;
52564;SDS011;38460;53.106;7.004;2023-07-28T04:36:09;16.20;;;10.35;;
52564;SDS011;38460;53.106;7.004;2023-07-28T04:38:35;21.00;;;10.95;;
52564;SDS011;38460;53.106;7.004;2023-07-28T04:41:01;15.05;;;9.35;;
52564;SDS011;38460;53.106;7.004;2023-07-28T04:43:27;18.70;;;9.48;;
52564;SDS011;38460;53.106;7.004;2023-07-28T04:45:53;15.85;;;9.63;;
52564;SDS011;38460;53.106;7.004;2023-07-28T04:48:19;15.82;;;9.07;;
52564;SDS011;38460;53.106;7.004;2023-07-28T04:50:44;19.17;;;10.43;;
52564;SDS011;38460;53.106;7.004;2023-07-28T04:53:10;15.32;;;9.43;;
52564;SDS011;38460;53.106;7.004;2023-07-28T04:55:36;14.32;;;9.13;;
52564;SDS011;38460;53.106;7.004;2023-07-28T04:58:02;20.00;;;9.75;;
52564;SDS011;38460;53.106;7.004;2023-07-28T05:00:28;16.33;;;9.75;;
52564;SDS011;38460;53.106;7.004;2023-07-28T05:02:53;12.65;;;9.50;;
52564;SDS011;38460;53.106;7.004;2023-07-28T05:05:19;19.95;;;9.57;;
52564;SDS011;38460;53.106;7.004;2023-07-28T05:07:45;15.95;;;9.00;;
52564;SDS011;38460;53.106;7.004;2023-07-28T05:10:11;18.15;;;9.40;;
52564;SDS011;38460;53.106;7.004;2023-07-28T05:12:37;13.73;;;8.88;;
52564;SDS011;38460;53.106;7.004;2023-07-28T05:15:04;17.17;;;8.90;;
52564;SDS011;38460;53.106;7.004;2023-07-28T05:17:30;15.20;;;9.13;;
52564;SDS011;38460;53.106;7.004;2023-07-28T05:19:56;16.80;;;8.82;;
52564;SDS011;38460;53.106;7.004;2023-07-28T05:22:22;17.48;;;8.80;;
52564;SDS011;38460;53.106;7.004;2023-07-28T05:24:47;15.65;;;9.30;;
52564;SDS011;38460;53.106;7.004;2023-07-28T05:27:14;15.90;;;9.65;;
52564;SDS011;38460;53.106;7.004;2023-07-28T05:29:40;17.77;;;8.68;;
52564;SDS011;38460;53.106;7.004;2023-07-28T05:32:06;17.90;;;10.25;;
52564;SDS011;38460;53.106;7.004;2023-07-28T05:34:32;16.95;;;9.25;;
52564;SDS011;38460;53.106;7.004;2023-07-28T05:36:58;20.85;;;10.05;;
52564;SDS011;38460;53.106;7.004;2023-07-28T05:39:24;16.05;;;9.30;;
52564;SDS011;38460;53.106;7.004;2023-07-28T05:41:49;14.30;;;9.25;;
52564;SDS011;38460;53.106;7.004;2023-07-28T05:44:15;15.20;;;9.55;;
52564;SDS011;38460;53.106;7.004;2023-07-28T05:46:41;15.57;;;9.00;;
52564;SDS011;38460;53.106;7.004;2023-07-28T05:49:06;15.13;;;9.05;;
52564;SDS011;38460;53.106;7.004;2023-07-28T05:51:32;18.42;;;10.60;;
52564;SDS011;38460;53.106;7.004;2023-07-28T05:53:58;12.10;;;9.10;;
52564;SDS011;38460;53.106;7.004;2023-07-28T05:56:25;11.70;;;8.25;;
52564;SDS011;38460;53.106;7.004;2023-07-28T05:58:50;20.08;;;8.95;;
52564;SDS011;38460;53.106;7.004;2023-07-28T06:01:16;18.15;;;9.45;;
52564;SDS011;38460;53.106;7.004;2023-07-28T06:03:43;11.32;;;8.15;;
52564;SDS011;38460;53.106;7.004;2023-07-28T06:06:08;13.30;;;9.15;;
52564;SDS011;38460;53.106;7.004;2023-07-28T06:08:34;16.33;;;9.75;;
52564;SDS011;38460;53.106;7.004;2023-07-28T06:11:03;14.95;;;10.13;;
52564;SDS011;38460;53.106;7.004;2023-07-28T06:13:32;14.02;;;8.90;;
52564;SDS011;38460;53.106;7.004;2023-07-28T06:15:58;16.77;;;9.43;;
52564;SDS011;38460;53.106;7.004;2023-07-28T06:18:24;14.02;;;8.80;;
52564;SDS011;38460;53.106;7.004;2023-07-28T06:20:50;15.93;;;9.80;;
52564;SDS011;38460;53.106;7.004;2023-07-28T06:23:16;14.60;;;8.70;;
52564;SDS011;38460;53.106;7.004;2023-07-28T06:25:41;15.50;;;8.90;;
52564;SDS011;38460;53.106;7.004;2023-07-28T06:28:11;15.00;;;9.10;;
52564;SDS011;38460;53.106;7.004;2023-07-28T06:30:37;12.90;;;8.70;;
52564;SDS011;38460;53.106;7.004;2023-07-28T06:33:07;13.70;;;8.95;;
52564;SDS011;38460;53.106;7.004;2023-07-28T06:35:33;15.45;;;8.88;;
52564;SDS011;38460;53.106;7.004;2023-07-28T06:37:59;15.80;;;10.10;;
52564;SDS011;38460;53.106;7.004;2023-07-28T06:40:26;18.20;;;9.30;;
52564;SDS011;38460;53.106;7.004;2023-07-28T06:42:52;14.20;;;8.80;;
52564;SDS011;38460;53.106;7.004;2023-07-28T06:45:17;14.60;;;9.20;;
52564;SDS011;38460;53.106;7.004;2023-07-28T06:47:43;14.80;;;8.50;;
52564;SDS011;38460;53.106;7.004;2023-07-28T06:50:10;14.98;;;8.07;;
52564;SDS011;38460;53.106;7.004;2023-07-28T06:52:36;11.57;;;8.00;;
52564;SDS011;38460;53.106;7.004;2023-07-28T06:55:02;13.02;;;7.07;;
52564;SDS011;38460;53.106;7.004;2023-07-28T06:57:28;14.60;;;7.88;;
52564;SDS011;38460;53.106;7.004;2023-07-28T06:59:55;14.65;;;7.70;;
52564;SDS011;38460;53.106;7.004;2023-07-28T07:02:22;15.02;;;7.50;;
52564;SDS011;38460;53.106;7.004;2023-07-28T07:04:47;10.13;;;7.13;;
52564;SDS011;38460;53.106;7.004;2023-07-28T07:07:13;12.57;;;6.88;;
52564;SDS011;38460;53.106;7.004;2023-07-28T07:09:39;11.77;;;7.38;;
52564;SDS011;38460;53.106;7.004;2023-07-28T07:12:06;13.52;;;6.85;;
52564;SDS011;38460;53.106;7.004;2023-07-28T07:14:35;9.30;;;6.13;;
52564;SDS011;38460;53.106;7.004;2023-07-28T07:17:01;11.95;;;6.18;;
52564;SDS011;38460;53.106;7.004;2023-07-28T07:19:27;9.43;;;5.68;;
52564;SDS011;38460;53.106;7.004;2023-07-28T07:21:54;8.43;;;5.55;;
52564;SDS011;38460;53.106;7.004;2023-07-28T07:24:20;8.40;;;5.68;;
52564;SDS011;38460;53.106;7.004;2023-07-28T07:26:46;8.43;;;5.40;;
52564;SDS011;38460;53.106;7.004;2023-07-28T07:29:12;6.28;;;5.20;;
52564;SDS011;38460;53.106;7.004;2023-07-28T07:31:38;7.05;;;5.03;;
52564;SDS011;38460;53.106;7.004;2023-07-28T07:34:04;6.65;;;4.43;;
52564;SDS011;38460;53.106;7.004;2023-07-28T07:36:30;7.50;;;5.63;;
52564;SDS011;38460;53.106;7.004;2023-07-28T07:38:56;8.10;;;5.55;;
52564;SDS011;38460;53.106;7.004;2023-07-28T07:41:22;7.00;;;5.03;;
52564;SDS011;38460;53.106;7.004;2023-07-28T07:43:49;6.32;;;4.85;;
52564;SDS011;38460;53.106;7.004;2023-07-28T07:46:17;7.78;;;5.30;;
52564;SDS011;38460;53.106;7.004;2023-07-28T07:48:44;7.25;;;5.07;;
52564;SDS011;38460;53.106;7.004;2023-07-28T07:51:10;9.52;;;5.50;;
52564;SDS011;38460;53.106;7.004;2023-07-28T07:53:36;9.07;;;5.53;;
52564;SDS011;38460;53.106;7.004;2023-07-28T07:56:02;9.00;;;5.30;;
52564;SDS011;38460;53.106;7.004;2023-07-28T07:58:29;7.13;;;4.88;;
52564;SDS011;38460;53.106;7.004;2023-07-28T08:00:55;7.47;;;4.75;;
52564;SDS011;38460;53.106;7.004;2023-07-28T08:03:21;5.28;;;4.40;;
52564;SDS011;38460;53.106;7.004;2023-07-28T08:05:47;6.20;;;4.15;;
52564;SDS011;38460;53.106;7.004;2023-07-28T08:08:13;5.65;;;4.28;;
52564;SDS011;38460;53.106;7.004;2023-07-28T08:10:42;7.32;;;4.78;;
52564;SDS011;38460;53.106;7.004;2023-07-28T08:13:08;6.72;;;3.83;;
52564;SDS011;38460;53.106;7.004;2023-07-28T08:15:34;6.38;;;4.30;;
52564;SDS011;38460;53.106;7.004;2023-07-28T08:18:00;5.38;;;4.50;;
52564;SDS011;38460;53.106;7.004;2023-07-28T08:20:26;6.78;;;4.32;;
52564;SDS011;38460;53.106;7.004;2023-07-28T08:22:52;5.53;;;4.38;;
52564;SDS011;38460;53.106;7.004;2023-07-28T08:25:18;5.72;;;3.90;;
52564;SDS011;38460;53.106;7.004;2023-07-28T08:27:44;5.38;;;4.35;;
52564;SDS011;38460;53.106;7.004;2023-07-28T08:30:09;5.22;;;3.95;;
52564;SDS011;38460;53.106;7.004;2023-07-28T08:32:36;4.97;;;3.75;;
52564;SDS011;38460;53.106;7.004;2023-07-28T08:35:02;6.28;;;4.68;;
52564;SDS011;38460;53.106;7.004;2023-07-28T08:37:28;6.28;;;4.07;;
52564;SDS011;38460;53.106;7.004;2023-07-28T08:39:54;6.05;;;4.30;;
52564;SDS011;38460;53.106;7.004;2023-07-28T08:42:20;5.72;;;4.05;;
52564;SDS011;38460;53.106;7.004;2023-07-28T08:44:49;6.55;;;3.65;;
52564;SDS011;38460;53.106;7.004;2023-07-28T08:47:17;6.20;;;3.75;;
52564;SDS011;38460;53.106;7.004;2023-07-28T08:49:44;5.90;;;3.88;;
52564;SDS011;38460;53.106;7.004;2023-07-28T08:52:09;4.03;;;3.53;;
52564;SDS011;38460;53.106;7.004;2023-07-28T08:54:35;4.55;;;3.65;;
52564;SDS011;38460;53.106;7.004;2023-07-28T08:57:01;6.75;;;3.50;;
52564;SDS011;38460;53.106;7.004;2023-07-28T08:59:28;4.13;;;3.33;;
52564;SDS011;38460;53.106;7.004;2023-07-28T09:01:55;6.78;;;3.63;;
52564;SDS011;38460;53.106;7.004;2023-07-28T09:04:23;4.97;;;3.33;;
52564;SDS011;38460;53.106;7.004;2023-07-28T09:06:49;5.15;;;3.40;;
52564;SDS011;38460;53.106;7.004;2023-07-28T09:09:16;5.03;;;3.28;;
52564;SDS011;38460;53.106;7.004;2023-07-28T09:11:46;5.07;;;3.28;;
52564;SDS011;38460;53.106;7.004;2023-07-28T09:14:13;4.20;;;2.90;;
52564;SDS011;38460;53.106;7.004;2023-07-28T09:16:41;4.78;;;3.35;;
52564;SDS011;38460;53.106;7.004;2023-07-28T09:19:08;4.13;;;2.78;;
52564;SDS011;38460;53.106;7.004;2023-07-28T09:21:35;5.68;;;3.00;;
52564;SDS011;38460;53.106;7.004;2023-07-28T09:24:12;4.82;;;2.90;;
52564;SDS011;38460;53.106;7.004;2023-07-28T09:26:45;5.10;;;2.95;;
52564;SDS011;38460;53.106;7.004;2023-07-28T09:31:42;5.03;;;3.22;;
52564;SDS011;38460;53.106;7.004;2023-07-28T09:34:08;5.68;;;3.13;;
52564;SDS011;38460;53.106;7.004;2023-07-28T09:36:35;4.25;;;2.97;;
52564;SDS011;38460;53.106;7.004;2023-07-28T09:39:04;3.55;;;2.85;;
52564;SDS011;38460;53.106;7.004;2023-07-28T09:41:37;3.85;;;2.60;;
52564;SDS011;38460;53.106;7.004;2023-07-28T09:44:03;5.53;;;2.95;;
52564;SDS011;38460;53.106;7.004;2023-07-28T09:46:32;4.20;;;3.30;;
52564;SDS011;38460;53.106;7.004;2023-07-28T09:49:05;5.40;;;3.40;;
52564;SDS011;38460;53.106;7.004;2023-07-28T09:51:35;6.60;;;3.08;;
52564;SDS011;38460;53.106;7.004;2023-07-28T09:54:06;5.57;;;3.50;;
52564;SDS011;38460;53.106;7.004;2023-07-28T09:56:41;6.25;;;3.38;;
52564;SDS011;38460;53.106;7.004;2023-07-28T09:59:12;5.47;;;3.22;;
52564;SDS011;38460;53.106;7.004;2023-07-28T10:01:41;6.05;;;3.30;;
52564;SDS011;38460;53.106;7.004;2023-07-28T10:04:10;7.40;;;3.05;;
52564;SDS011;38460;53.106;7.004;2023-07-28T10:06:36;5.05;;;3.00;;
52564;SDS011;38460;53.106;7.004;2023-07-28T10:09:03;5.38;;;3.33;;
52564;SDS011;38460;53.106;7.004;2023-07-28T10:11:31;4.07;;;3.00;;
52564;SDS011;38460;53.106;7.004;2023-07-28T10:13:57;5.38;;;3.25;;
52564;SDS011;38460;53.106;7.004;2023-07-28T10:16:29;4.13;;;3.08;;
52564;SDS011;38460;53.106;7.004;2023-07-28T10:18:57;7.75;;;2.80;;
52564;SDS011;38460;53.106;7.004;2023-07-28T10:21:26;4.53;;;3.20;;
52564;SDS011;38460;53.106;7.004;2023-07-28T10:23:57;5.35;;;3.17;;
52564;SDS011;38460;53.106;7.004;2023-07-28T10:26:38;4.45;;;3.00;;
52564;SDS011;38460;53.106;7.004;2023-07-28T10:29:09;4.55;;;3.25;;
52564;SDS011;38460;53.106;7.004;2023-07-28T10:31:37;4.20;;;2.65;;
52564;SDS011;38460;53.106;7.004;2023-07-28T10:34:16;4.65;;;3.00;;
52564;SDS011;38460;53.106;7.004;2023-07-28T10:36:46;5.93;;;3.05;;
52564;SDS011;38460;53.106;7.004;2023-07-28T10:39:20;5.13;;;3.03;;
52564;SDS011;38460;53.106;7.004;2023-07-28T10:42:03;3.85;;;2.85;;
52564;SDS011;38460;53.106;7.004;2023-07-28T10:44:34;5.32;;;3.30;;
52564;SDS011;38460;53.106;7.004;2023-07-28T10:47:00;4.22;;;2.78;;
52564;SDS011;38460;53.106;7.004;2023-07-28T10:49:26;4.05;;;3.13;;
52564;SDS011;38460;53.106;7.004;2023-07-28T10:51:57;3.80;;;2.80;;
52564;SDS011;38460;53.106;7.004;2023-07-28T10:54:23;7.07;;;3.22;;
52564;SDS011;38460;53.106;7.004;2023-07-28T10:56:48;4.38;;;3.00;;
52564;SDS011;38460;53.106;7.004;2023-07-28T10:59:14;4.88;;;3.10;;
52564;SDS011;38460;53.106;7.004;2023-07-28T11:01:41;5.82;;;3.40;;
52564;SDS011;38460;53.106;7.004;2023-07-28T11:04:11;6.72;;;3.10;;
52564;SDS011;38460;53.106;7.004;2023-07-28T11:06:42;3.75;;;2.30;;
52564;SDS011;38460;53.106;7.004;2023-07-28T11:09:09;4.65;;;2.90;;
52564;SDS011;38460;53.106;7.004;2023-07-28T11:11:39;5.85;;;3.00;;
52564;SDS011;38460;53.106;7.004;2023-07-28T11:14:05;5.63;;;3.20;;
52564;SDS011;38460;53.106;7.004;2023-07-28T11:16:33;4.78;;;3.33;;
52564;SDS011;38460;53.106;7.004;2023-07-28T11:19:00;5.50;;;3.53;;
52564;SDS011;38460;53.106;7.004;2023-07-28T11:21:27;5.68;;;3.88;;
52564;SDS011;38460;53.106;7.004;2023-07-28T11:23:53;5.60;;;3.50;;
52564;SDS011;38460;53.106;7.004;2023-07-28T11:26:23;6.13;;;2.75;;
52564;SDS011;38460;53.106;7.004;2023-07-28T11:28:49;4.97;;;2.70;;
52564;SDS011;38460;53.106;7.004;2023-07-28T11:31:14;5.60;;;2.70;;
52564;SDS011;38460;53.106;7.004;2023-07-28T11:33:40;7.05;;;3.13;;
52564;SDS011;38460;53.106;7.004;2023-07-28T11:36:06;3.28;;;2.40;;
52564;SDS011;38460;53.106;7.004;2023-07-28T11:38:33;5.05;;;2.45;;
52564;SDS011;38460;53.106;7.004;2023-07-28T11:41:00;3.88;;;2.40;;
52564;SDS011;38460;53.106;7.004;2023-07-28T11:43:27;4.40;;;2.40;;
52564;SDS011;38460;53.106;7.004;2023-07-28T11:45:54;3.95;;;2.40;;
52564;SDS011;38460;53.106;7.004;2023-07-28T11:48:20;4.30;;;2.90;;
52564;SDS011;38460;53.106;7.004;2023-07-28T11:50:46;3.45;;;2.60;;
52564;SDS011;38460;53.106;7.004;2023-07-28T11:53:11;4.78;;;2.78;;
52564;SDS011;38460;53.106;7.004;2023-07-28T11:55:38;4.70;;;2.55;;
52564;SDS011;38460;53.106;7.004;2023-07-28T11:58:05;4.95;;;2.50;;
52564;SDS011;38460;53.106;7.004;2023-07-28T12:00:32;3.72;;;2.40;;
52564;SDS011;38460;53.106;7.004;2023-07-28T12:03:11;4.40;;;3.00;;
52564;SDS011;38460;53.106;7.004;2023-07-28T12:05:38;3.75;;;2.38;;
52564;SDS011;38460;53.106;7.004;2023-07-28T12:08:05;4.57;;;2.40;;
52564;SDS011;38460;53.106;7.004;2023-07-28T12:10:34;3.10;;;2.28;;
52564;SDS011;38460;53.106;7.004;2023-07-28T12:13:03;6.55;;;2.58;;
52564;SDS011;38460;53.106;7.004;2023-07-28T12:15:31;4.83;;;2.70;;
52564;SDS011;38460;53.106;7.004;2023-07-28T12:18:04;3.15;;;2.42;;
52564;SDS011;38460;53.106;7.004;2023-07-28T12:20:41;4.28;;;2.20;;
52564;SDS011;38460;53.106;7.004;2023-07-28T12:23:12;3.90;;;2.00;;
52564;SDS011;38460;53.106;7.004;2023-07-28T12:25:40;4.57;;;2.83;;
52564;SDS011;38460;53.106;7.004;2023-07-28T12:28:06;3.20;;;2.15;;
52564;SDS011;38460;53.106;7.004;2023-07-28T12:30:32;3.38;;;2.20;;
52564;SDS011;38460;53.106;7.004;2023-07-28T12:32:59;3.25;;;2.17;;
52564;SDS011;38460;53.106;7.004;2023-07-28T12:35:25;5.05;;;2.38;;
52564;SDS011;38460;53.106;7.004;2023-07-28T12:37:56;4.90;;;2.33;;
52564;SDS011;38460;53.106;7.004;2023-07-28T12:40:24;5.47;;;2.55;;
52564;SDS011;38460;53.106;7.004;2023-07-28T12:42:51;3.55;;;2.60;;
52564;SDS011;38460;53.106;7.004;2023-07-28T12:45:17;3.45;;;2.22;;
52564;SDS011;38460;53.106;7.004;2023-07-28T12:47:43;4.95;;;2.25;;
52564;SDS011;38460;53.106;7.004;2023-07-28T12:50:09;4.60;;;2.03;;
52564;SDS011;38460;53.106;7.004;2023-07-28T12:52:35;2.60;;;2.00;;
52564;SDS011;38460;53.106;7.004;2023-07-28T12:55:01;6.35;;;1.90;;
52564;SDS011;38460;53.106;7.004;2023-07-28T12:57:27;4.35;;;2.15;;
52564;SDS011;38460;53.106;7.004;2023-07-28T12:59:53;3.70;;;1.83;;
52564;SDS011;38460;53.106;7.004;2023-07-28T13:02:19;4.90;;;2.42;;
52564;SDS011;38460;53.106;7.004;2023-07-28T13:04:44;4.07;;;2.22;;
52564;SDS011;38460;53.106;7.004;2023-07-28T13:07:10;3.53;;;2.08;;
52564;SDS011;38460;53.106;7.004;2023-07-28T13:09:36;3.88;;;1.95;;
52564;SDS011;38460;53.106;7.004;2023-07-28T13:12:02;3.10;;;1.70;;
52564;SDS011;38460;53.106;7.004;2023-07-28T13:14:28;3.35;;;1.77;;
52564;SDS011;38460;53.106;7.004;2023-07-28T13:16:53;3.85;;;1.83;;
52564;SDS011;38460;53.106;7.004;2023-07-28T13:19:19;3.75;;;1.90;;
52564;SDS011;38460;53.106;7.004;2023-07-28T13:21:45;3.83;;;2.05;;
52564;SDS011;38460;53.106;7.004;2023-07-28T13:24:11;3.20;;;1.75;;
52564;SDS011;38460;53.106;7.004;2023-07-28T13:26:37;2.90;;;1.70;;
52564;SDS011;38460;53.106;7.004;2023-07-28T13:29:02;3.08;;;1.60;;
52564;SDS011;38460;53.106;7.004;2023-07-28T13:31:32;5.90;;;2.08;;
52564;SDS011;38460;53.106;7.004;2023-07-28T13:33:58;3.80;;;1.92;;
52564;SDS011;38460;53.106;7.004;2023-07-28T13:36:23;2.03;;;1.50;;
52564;SDS011;38460;53.106;7.004;2023-07-28T13:38:49;2.92;;;1.70;;
52564;SDS011;38460;53.106;7.004;2023-07-28T13:41:15;2.60;;;1.50;;
52564;SDS011;38460;53.106;7.004;2023-07-28T13:43:40;4.47;;;1.80;;
52564;SDS011;38460;53.106;7.004;2023-07-28T13:46:06;3.65;;;1.42;;
52564;SDS011;38460;53.106;7.004;2023-07-28T13:48:33;2.75;;;1.70;;
52564;SDS011;38460;53.106;7.004;2023-07-28T13:51:01;2.72;;;1.50;;
52564;SDS011;38460;53.106;7.004;2023-07-28T13:53:27;4.50;;;1.90;;
52564;SDS011;38460;53.106;7.004;2023-07-28T13:55:53;3.08;;;1.70;;
52564;SDS011;38460;53.106;7.004;2023-07-28T13:58:20;5.10;;;2.30;;
52564;SDS011;38460;53.106;7.004;2023-07-28T14:00:45;3.83;;;2.10;;
52564;SDS011;38460;53.106;7.004;2023-07-28T14:03:11;4.75;;;2.22;;
52564;SDS011;38460;53.106;7.004;2023-07-28T14:05:38;3.95;;;2.20;;
52564;SDS011;38460;53.106;7.004;2023-07-28T14:08:04;3.05;;;2.30;;
52564;SDS011;38460;53.106;7.004;2023-07-28T14:10:30;3.95;;;2.40;;
52564;SDS011;38460;53.106;7.004;2023-07-28T14:12:57;4.25;;;2.42;;
52564;SDS011;38460;53.106;7.004;2023-07-28T14:15:23;3.05;;;2.15;;
52564;SDS011;38460;53.106;7.004;2023-07-28T14:17:49;3.15;;;2.00;;
52564;SDS011;38460;53.106;7.004;2023-07-28T14:20:15;2.67;;;1.63;;
52564;SDS011;38460;53.106;7.004;2023-07-28T14:22:41;3.47;;;1.77;;
52564;SDS011;38460;53.106;7.004;2023-07-28T14:25:06;5.20;;;1.73;;
52564;SDS011;38460;53.106;7.004;2023-07-28T14:27:32;3.83;;;1.85;;
52564;SDS011;38460;53.106;7.004;2023-07-28T14:29:58;4.50;;;2.50;;
52564;SDS011;38460;53.106;7.004;2023-07-28T14:32:24;3.67;;;2.13;;
52564;SDS011;38460;53.106;7.004;2023-07-28T14:34:49;3.95;;;1.90;;
52564;SDS011;38460;53.106;7.004;2023-07-28T14:37:15;2.92;;;1.65;;
52564;SDS011;38460;53.106;7.004;2023-07-28T14:39:41;6.95;;;1.98;;
52564;SDS011;38460;53.106;7.004;2023-07-28T14:42:07;4.78;;;1.73;;